createdAt,value
2023-01-23T00:09:08.560Z,11.50
2023-01-23T00:19:10.905Z,10.97
2023-01-23T00:29:15.474Z,11.90
2023-01-23T00:39:19.614Z,10.37
2023-01-23T00:49:24.556Z,11.67
2023-01-23T00:59:27.012Z,10.90
2023-01-23T01:09:29.122Z,9.93
2023-01-23T01:19:31.433Z,10.17
2023-01-23T01:29:33.921Z,9.87
2023-01-23T01:39:36.266Z,9.50
2023-01-23T01:49:38.390Z,10.37
2023-01-23T01:59:48.381Z,11.03
2023-01-23T02:09:50.724Z,10.67
2023-01-23T02:20:17.724Z,11.03
2023-01-23T02:30:21.508Z,10.97
2023-01-23T02:40:41.102Z,11.40
2023-01-23T02:50:46.594Z,10.97
2023-01-23T03:00:48.887Z,11.73
2023-01-23T03:10:51.266Z,12.40
2023-01-23T03:20:53.944Z,12.00
2023-01-23T03:30:59.148Z,12.73
2023-01-23T03:41:20.186Z,12.23
2023-01-23T03:51:22.907Z,12.57
2023-01-23T04:01:26.142Z,12.03
2023-01-23T04:11:28.799Z,11.20
2023-01-23T04:21:31.334Z,12.37
2023-01-23T04:31:34.126Z,11.30
2023-01-23T04:41:36.870Z,11.97
2023-01-23T04:51:48.250Z,11.37
2023-01-23T05:01:51.970Z,12.63
2023-01-23T05:11:54.258Z,12.57
2023-01-23T05:21:59.253Z,11.47
2023-01-23T05:32:01.987Z,10.80
2023-01-23T05:42:13.311Z,11.07
2023-01-23T05:52:35.610Z,11.63
2023-01-23T06:02:38.950Z,12.00
2023-01-23T06:13:16.768Z,12.17
2023-01-23T06:23:19.191Z,12.27
2023-01-23T06:33:21.420Z,13.23
2023-01-23T06:43:25.776Z,12.17
2023-01-23T06:53:29.636Z,12.03
2023-01-23T07:03:32.396Z,11.60
2023-01-23T07:13:34.822Z,12.87
2023-01-23T07:23:37.344Z,11.93
2023-01-23T07:33:39.527Z,11.63
2023-01-23T07:43:41.699Z,11.40
2023-01-23T07:53:43.877Z,11.47
2023-01-23T08:03:46.971Z,11.60
2023-01-23T08:13:50.213Z,10.93
2023-01-23T08:23:52.404Z,10.43
2023-01-23T08:33:55.411Z,9.23
2023-01-23T08:44:01.781Z,9.40
2023-01-23T08:54:04.157Z,8.43
2023-01-23T09:04:06.427Z,8.77
2023-01-23T09:14:08.692Z,7.93
2023-01-23T09:24:10.788Z,7.90
2023-01-23T09:34:13.147Z,8.00
2023-01-23T09:44:35.883Z,8.10
2023-01-23T09:54:48.331Z,7.27
2023-01-23T10:04:52.441Z,7.10
2023-01-23T10:15:11.522Z,7.17
2023-01-23T10:25:20.971Z,6.30
2023-01-23T10:35:39.475Z,7.00
2023-01-23T10:45:42.385Z,6.87
2023-01-23T10:55:45.965Z,7.47
2023-01-23T11:05:53.469Z,7.67
2023-01-23T11:15:55.908Z,7.83
2023-01-23T11:25:59.411Z,8.30
2023-01-23T11:36:28.695Z,7.90
2023-01-23T11:46:43.992Z,8.37
2023-01-23T11:56:56.439Z,8.07
2023-01-23T12:07:21.425Z,7.33
2023-01-23T12:17:49.050Z,7.90
2023-01-23T12:28:00.751Z,8.53
2023-01-23T12:38:19.461Z,8.83
2023-01-23T12:48:32.821Z,8.67
2023-01-23T12:58:38.121Z,8.47
2023-01-23T13:09:02.624Z,9.60
2023-01-23T13:19:41.821Z,9.23
2023-01-23T13:29:49.808Z,9.43
2023-01-23T13:40:13.648Z,9.33
2023-01-23T14:21:56.965Z,8.50
2023-01-23T14:32:00.300Z,8.77
2023-01-23T14:42:04.497Z,8.83
2023-01-23T14:52:18.350Z,7.80
2023-01-23T15:02:26.375Z,8.63
2023-01-23T15:12:28.741Z,9.00
2023-01-23T15:22:32.665Z,8.10
2023-01-23T15:32:35.718Z,8.27
2023-01-23T15:42:39.702Z,8.17
2023-01-23T15:52:48.528Z,9.00
2023-01-23T16:02:56.663Z,8.67
2023-01-23T16:12:59.758Z,8.57
2023-01-23T16:23:14.556Z,8.07
2023-01-23T16:33:17.047Z,7.80
2023-01-23T16:43:20.387Z,8.10
2023-01-23T16:53:29.609Z,8.10
2023-01-23T17:03:34.456Z,8.70
2023-01-23T17:13:36.948Z,8.03
2023-01-23T17:23:39.076Z,7.97
2023-01-23T17:33:41.309Z,7.97
2023-01-23T17:43:44.698Z,8.13
2023-01-23T17:53:47.228Z,8.90
2023-01-23T18:03:50.533Z,7.87
2023-01-23T18:14:15.188Z,8.73
2023-01-23T18:24:25.339Z,8.20
2023-01-23T18:34:50.549Z,9.37
2023-01-23T18:44:56.784Z,8.50
2023-01-23T18:55:14.396Z,9.70
2023-01-23T19:05:31.336Z,9.07
2023-01-23T19:16:08.385Z,10.00
2023-01-23T19:26:14.570Z,8.87
2023-01-23T19:36:17.217Z,8.73
2023-01-23T19:46:21.312Z,8.77
2023-01-23T19:56:24.730Z,9.20
2023-01-23T20:06:27.510Z,8.40
2023-01-23T20:16:29.827Z,9.07
2023-01-23T20:26:31.984Z,8.50
2023-01-23T20:36:34.114Z,9.03
2023-01-23T20:46:36.299Z,9.40
2023-01-23T20:56:39.043Z,10.37
2023-01-23T21:06:41.173Z,9.77
2023-01-23T21:16:43.568Z,10.17
2023-01-23T21:26:45.914Z,9.20
2023-01-23T21:36:48.179Z,8.33
2023-01-23T21:46:51.593Z,8.23
2023-01-23T21:56:53.736Z,7.57
2023-01-23T22:06:58.675Z,7.87
2023-01-23T22:17:01.008Z,7.33
2023-01-23T22:27:04.124Z,7.20
2023-01-23T22:37:06.335Z,6.93
2023-01-23T22:47:08.809Z,7.53
2023-01-23T22:57:11.197Z,6.50
2023-01-23T23:07:13.610Z,7.70
2023-01-23T23:17:15.899Z,6.90
2023-01-23T23:27:18.216Z,7.33
2023-01-23T23:37:20.341Z,7.83
2023-01-23T23:47:22.466Z,6.13
2023-01-23T23:57:24.730Z,6.40
